sensor_id;sensor_type;location;lat;lon;timestamp;pressure;altitude;pressure_sealevel;temperature;humidity
50852;BME280;43953;45.508;-122.806;2023-05-20T00:00:14;100708.56;;;28.23;37.64
50852;BME280;43953;45.508;-122.806;2023-05-20T00:00:46;100699.09;;;28.24;37.73
50852;BME280;43953;45.508;-122.806;2023-05-20T00:01:20;100707.09;;;28.25;37.84
50852;BME280;43953;45.508;-122.806;2023-05-20T00:01:52;100706.28;;;28.25;37.98
50852;BME280;43953;45.508;-122.806;2023-05-20T00:02:24;100709.03;;;28.25;37.78
50852;BME280;43953;45.508;-122.806;2023-05-20T00:02:55;100709.50;;;28.27;37.96
50852;BME280;43953;45.508;-122.806;2023-05-20T00:03:27;100702.34;;;28.26;37.73
50852;BME280;43953;45.508;-122.806;2023-05-20T00:03:59;100703.97;;;28.27;37.85
50852;BME280;43953;45.508;-122.806;2023-05-20T00:04:31;100707.56;;;28.27;37.91
50852;BME280;43953;45.508;-122.806;2023-05-20T00:05:03;100690.47;;;28.25;37.87
50852;BME280;43953;45.508;-122.806;2023-05-20T00:05:34;100700.88;;;28.28;37.71
50852;BME280;43953;45.508;-122.806;2023-05-20T00:06:06;100700.75;;;28.25;38.04
50852;BME280;43953;45.508;-122.806;2023-05-20T00:06:38;100703.31;;;28.30;37.91
50852;BME280;43953;45.508;-122.806;2023-05-20T00:07:09;100704.13;;;28.30;37.91
50852;BME280;43953;45.508;-122.806;2023-05-20T00:07:41;100702.19;;;28.31;37.87
50852;BME280;43953;45.508;-122.806;2023-05-20T00:08:13;100706.56;;;28.32;37.69
50852;BME280;43953;45.508;-122.806;2023-05-20T00:08:45;100703.81;;;28.32;37.79
50852;BME280;43953;45.508;-122.806;2023-05-20T00:09:16;100705.41;;;28.33;37.67
50852;BME280;43953;45.508;-122.806;2023-05-20T00:09:48;100702.66;;;28.33;37.79
50852;BME280;43953;45.508;-122.806;2023-05-20T00:10:20;100700.69;;;28.33;37.69
50852;BME280;43953;45.508;-122.806;2023-05-20T00:10:52;100704.31;;;28.34;37.73
50852;BME280;43953;45.508;-122.806;2023-05-20T00:11:23;100703.16;;;28.35;37.93
50852;BME280;43953;45.508;-122.806;2023-05-20T00:11:56;100704.31;;;28.34;37.70
50852;BME280;43953;45.508;-122.806;2023-05-20T00:12:28;100698.28;;;28.32;37.73
50852;BME280;43953;45.508;-122.806;2023-05-20T00:12:59;100700.88;;;28.37;37.55
50852;BME280;43953;45.508;-122.806;2023-05-20T00:13:31;100707.53;;;28.36;37.67
50852;BME280;43953;45.508;-122.806;2023-05-20T00:14:06;100708.03;;;28.38;37.51
50852;BME280;43953;45.508;-122.806;2023-05-20T00:14:37;100711.94;;;28.37;37.73
50852;BME280;43953;45.508;-122.806;2023-05-20T00:15:09;100716.81;;;28.40;37.70
50852;BME280;43953;45.508;-122.806;2023-05-20T00:15:44;100700.53;;;28.39;37.63
50852;BME280;43953;45.508;-122.806;2023-05-20T00:16:16;100713.25;;;28.40;37.69
50852;BME280;43953;45.508;-122.806;2023-05-20T00:16:47;100707.22;;;28.38;37.75
50852;BME280;43953;45.508;-122.806;2023-05-20T00:17:19;100711.59;;;28.39;37.64
50852;BME280;43953;45.508;-122.806;2023-05-20T00:17:51;100717.00;;;28.44;37.64
50852;BME280;43953;45.508;-122.806;2023-05-20T00:18:22;100714.56;;;28.42;37.65
50852;BME280;43953;45.508;-122.806;2023-05-20T00:18:54;100718.47;;;28.41;37.29
50852;BME280;43953;45.508;-122.806;2023-05-20T00:19:27;100713.44;;;28.43;37.85
50852;BME280;43953;45.508;-122.806;2023-05-20T00:19:58;100713.44;;;28.43;37.69
50852;BME280;43953;45.508;-122.806;2023-05-20T00:20:31;100714.25;;;28.44;37.49
50852;BME280;43953;45.508;-122.806;2023-05-20T00:21:03;100720.59;;;28.44;37.64
50852;BME280;43953;45.508;-122.806;2023-05-20T00:21:34;100718.63;;;28.45;37.62
50852;BME280;43953;45.508;-122.806;2023-05-20T00:22:06;100702.97;;;28.40;37.78
50852;BME280;43953;45.508;-122.806;2023-05-20T00:22:38;100708.69;;;28.44;37.68
50852;BME280;43953;45.508;-122.806;2023-05-20T00:23:09;100715.03;;;28.44;37.64
50852;BME280;43953;45.508;-122.806;2023-05-20T00:23:41;100719.13;;;28.47;37.76
50852;BME280;43953;45.508;-122.806;2023-05-20T00:24:13;100714.38;;;28.47;37.71
50852;BME280;43953;45.508;-122.806;2023-05-20T00:24:44;100721.53;;;28.48;37.65
50852;BME280;43953;45.508;-122.806;2023-05-20T00:25:16;100719.94;;;28.47;37.91
50852;BME280;43953;45.508;-122.806;2023-05-20T00:25:48;100722.19;;;28.45;38.21
50852;BME280;43953;45.508;-122.806;2023-05-20T00:26:21;100715.84;;;28.45;38.17
50852;BME280;43953;45.508;-122.806;2023-05-20T00:26:53;100715.84;;;28.45;38.22
50852;BME280;43953;45.508;-122.806;2023-05-20T00:27:24;100716.00;;;28.48;38.18
50852;BME280;43953;45.508;-122.806;2023-05-20T00:27:56;100716.84;;;28.49;38.28
50852;BME280;43953;45.508;-122.806;2023-05-20T00:28:28;100717.66;;;28.49;38.13
50852;BME280;43953;45.508;-122.806;2023-05-20T00:29:00;100709.00;;;28.42;38.10
50852;BME280;43953;45.508;-122.806;2023-05-20T00:29:32;100720.06;;;28.51;38.09
50852;BME280;43953;45.508;-122.806;2023-05-20T00:30:05;100718.09;;;28.51;38.00
50852;BME280;43953;45.508;-122.806;2023-05-20T00:30:41;100720.88;;;28.51;38.02
50852;BME280;43953;45.508;-122.806;2023-05-20T00:31:12;100717.78;;;28.53;38.22
50852;BME280;43953;45.508;-122.806;2023-05-20T00:31:44;100718.59;;;28.53;38.10
50852;BME280;43953;45.508;-122.806;2023-05-20T00:32:16;100723.03;;;28.54;38.15
50852;BME280;43953;45.508;-122.806;2023-05-20T00:32:48;100717.47;;;28.54;38.22
50852;BME280;43953;45.508;-122.806;2023-05-20T00:33:19;100714.72;;;28.54;38.31
50852;BME280;43953;45.508;-122.806;2023-05-20T00:33:51;100721.88;;;28.55;38.25
50852;BME280;43953;45.508;-122.806;2023-05-20T00:34:23;100722.66;;;28.56;38.19
50852;BME280;43953;45.508;-122.806;2023-05-20T00:34:55;100723.47;;;28.56;38.27
50852;BME280;43953;45.508;-122.806;2023-05-20T00:35:28;100724.63;;;28.55;38.24
50852;BME280;43953;45.508;-122.806;2023-05-20T00:36:00;100723.47;;;28.56;38.27
50852;BME280;43953;45.508;-122.806;2023-05-20T00:36:31;100719.91;;;28.56;38.30
50852;BME280;43953;45.508;-122.806;2023-05-20T00:37:03;100723.16;;;28.58;38.31
50852;BME280;43953;45.508;-122.806;2023-05-20T00:37:35;100724.78;;;28.59;38.28
50852;BME280;43953;45.508;-122.806;2023-05-20T00:38:06;100725.94;;;28.58;38.29
50852;BME280;43953;45.508;-122.806;2023-05-20T00:38:38;100726.09;;;28.62;38.17
50852;BME280;43953;45.508;-122.806;2023-05-20T00:39:10;100728.03;;;28.61;38.05
50852;BME280;43953;45.508;-122.806;2023-05-20T00:39:41;100726.09;;;28.62;38.17
50852;BME280;43953;45.508;-122.806;2023-05-20T00:40:13;100730.47;;;28.63;38.10
50852;BME280;43953;45.508;-122.806;2023-05-20T00:40:46;100723.31;;;28.62;38.04
50852;BME280;43953;45.508;-122.806;2023-05-20T00:41:17;100723.81;;;28.64;38.14
50852;BME280;43953;45.508;-122.806;2023-05-20T00:41:49;100721.84;;;28.64;38.07
50852;BME280;43953;45.508;-122.806;2023-05-20T00:42:24;100717.09;;;28.65;38.05
50852;BME280;43953;45.508;-122.806;2023-05-20T00:42:56;100726.22;;;28.65;37.94
50852;BME280;43953;45.508;-122.806;2023-05-20T00:43:28;100717.09;;;28.65;37.86
50852;BME280;43953;45.508;-122.806;2023-05-20T00:43:59;100716.78;;;28.66;38.00
50852;BME280;43953;45.508;-122.806;2023-05-20T00:44:31;100716.78;;;28.66;37.94
50852;BME280;43953;45.508;-122.806;2023-05-20T00:45:03;100705.53;;;28.63;37.94
50852;BME280;43953;45.508;-122.806;2023-05-20T00:45:36;100710.41;;;28.66;37.91
50852;BME280;43953;45.508;-122.806;2023-05-20T00:46:09;100706.53;;;28.67;37.95
50852;BME280;43953;45.508;-122.806;2023-05-20T00:46:41;100704.56;;;28.67;37.95
50852;BME280;43953;45.508;-122.806;2023-05-20T00:47:14;100703.75;;;28.67;37.88
50852;BME280;43953;45.508;-122.806;2023-05-20T00:47:46;100697.84;;;28.68;38.01
50852;BME280;43953;45.508;-122.806;2023-05-20T00:48:18;100700.31;;;28.70;37.98
50852;BME280;43953;45.508;-122.806;2023-05-20T00:48:52;100697.84;;;28.68;37.96
50852;BME280;43953;45.508;-122.806;2023-05-20T00:49:23;100697.53;;;28.70;37.99
50852;BME280;43953;45.508;-122.806;2023-05-20T00:49:55;100702.28;;;28.69;38.01
50852;BME280;43953;45.508;-122.806;2023-05-20T00:50:28;100699.16;;;28.71;37.96
50852;BME280;43953;45.508;-122.806;2023-05-20T00:51:00;100715.47;;;28.72;37.97
50852;BME280;43953;45.508;-122.806;2023-05-20T00:51:33;100711.53;;;28.73;37.90
50852;BME280;43953;45.508;-122.806;2023-05-20T00:52:05;100697.06;;;28.68;37.86
50852;BME280;43953;45.508;-122.806;2023-05-20T00:52:38;100708.78;;;28.73;37.95
50852;BME280;43953;45.508;-122.806;2023-05-20T00:53:11;100708.41;;;28.75;37.93
50852;BME280;43953;45.508;-122.806;2023-05-20T00:53:43;100710.72;;;28.73;37.97
50852;BME280;43953;45.508;-122.806;2023-05-20T00:54:15;100700.94;;;28.75;37.80
50852;BME280;43953;45.508;-122.806;2023-05-20T00:54:48;100701.25;;;28.74;37.87
50852;BME280;43953;45.508;-122.806;2023-05-20T00:55:21;100706.13;;;28.77;37.96
50852;BME280;43953;45.508;-122.806;2023-05-20T00:55:52;100703.72;;;28.75;38.03
50852;BME280;43953;45.508;-122.806;2023-05-20T00:56:24;100707.75;;;28.78;38.00
50852;BME280;43953;45.508;-122.806;2023-05-20T00:56:57;100698.63;;;28.77;38.04
50852;BME280;43953;45.508;-122.806;2023-05-20T00:57:29;100695.06;;;28.77;37.95
50852;BME280;43953;45.508;-122.806;2023-05-20T00:58:01;100701.09;;;28.79;37.95
50852;BME280;43953;45.508;-122.806;2023-05-20T00:58:34;100696.69;;;28.78;37.83
50852;BME280;43953;45.508;-122.806;2023-05-20T00:59:09;100705.47;;;28.80;38.08
50852;BME280;43953;45.508;-122.806;2023-05-20T00:59:41;100701.59;;;28.81;38.04
50852;BME280;43953;45.508;-122.806;2023-05-20T01:00:13;100707.94;;;28.82;38.04
50852;BME280;43953;45.508;-122.806;2023-05-20T01:00:45;100701.09;;;28.79;37.93
50852;BME280;43953;45.508;-122.806;2023-05-20T01:01:17;100710.69;;;28.82;38.11
50852;BME280;43953;45.508;-122.806;2023-05-20T01:01:49;100710.34;;;28.83;38.00
50852;BME280;43953;45.508;-122.806;2023-05-20T01:02:21;100709.53;;;28.83;37.97
50852;BME280;43953;45.508;-122.806;2023-05-20T01:02:54;100708.75;;;28.82;38.06
50852;BME280;43953;45.508;-122.806;2023-05-20T01:03:27;100710.34;;;28.83;37.97
50852;BME280;43953;45.508;-122.806;2023-05-20T01:03:59;100717.53;;;28.84;38.06
50852;BME280;43953;45.508;-122.806;2023-05-20T01:04:32;100705.47;;;28.80;38.11
50852;BME280;43953;45.508;-122.806;2023-05-20T01:05:04;100707.13;;;28.81;38.01
50852;BME280;43953;45.508;-122.806;2023-05-20T01:05:36;100709.69;;;28.86;38.15
50852;BME280;43953;45.508;-122.806;2023-05-20T01:06:08;100706.28;;;28.80;38.04
50852;BME280;43953;45.508;-122.806;2023-05-20T01:06:40;100711.34;;;28.87;38.12
50852;BME280;43953;45.508;-122.806;2023-05-20T01:07:14;100708.56;;;28.87;38.30
50852;BME280;43953;45.508;-122.806;2023-05-20T01:07:46;100703.81;;;28.88;38.10
50852;BME280;43953;45.508;-122.806;2023-05-20T01:08:18;100710.19;;;28.88;38.07
50852;BME280;43953;45.508;-122.806;2023-05-20T01:08:50;100707.41;;;28.88;38.14
50852;BME280;43953;45.508;-122.806;2023-05-20T01:09:22;100699.91;;;28.89;38.05
50852;BME280;43953;45.508;-122.806;2023-05-20T01:09:54;100705.13;;;28.90;38.10
50852;BME280;43953;45.508;-122.806;2023-05-20T01:10:27;100709.81;;;28.90;38.02
50852;BME280;43953;45.508;-122.806;2023-05-20T01:11:02;100707.53;;;28.92;38.07
50852;BME280;43953;45.508;-122.806;2023-05-20T01:11:40;100705.13;;;28.90;38.14
50852;BME280;43953;45.508;-122.806;2023-05-20T01:12:27;100705.94;;;28.91;38.06
50852;BME280;43953;45.508;-122.806;2023-05-20T01:13:04;100696.31;;;28.88;37.73
50852;BME280;43953;45.508;-122.806;2023-05-20T01:13:45;100702.50;;;28.94;37.75
50852;BME280;43953;45.508;-122.806;2023-05-20T01:14:18;100697.94;;;28.89;37.81
50852;BME280;43953;45.508;-122.806;2023-05-20T01:15:06;100695.66;;;28.91;37.67
50852;BME280;43953;45.508;-122.806;2023-05-20T01:15:39;100694.19;;;28.94;37.60
50852;BME280;43953;45.508;-122.806;2023-05-20T01:16:13;100704.09;;;28.95;37.83
50852;BME280;43953;45.508;-122.806;2023-05-20T01:16:48;100701.00;;;28.96;37.85
50852;BME280;43953;45.508;-122.806;2023-05-20T01:17:20;100696.59;;;28.95;37.84
50852;BME280;43953;45.508;-122.806;2023-05-20T01:17:59;100702.63;;;28.97;37.73
50852;BME280;43953;45.508;-122.806;2023-05-20T01:18:32;100702.63;;;28.97;37.69
50852;BME280;43953;45.508;-122.806;2023-05-20T01:19:16;100696.28;;;28.97;37.70
50852;BME280;43953;45.508;-122.806;2023-05-20T01:19:53;100694.31;;;28.97;37.77
50852;BME280;43953;45.508;-122.806;2023-05-20T01:20:27;100697.09;;;28.97;37.65
50852;BME280;43953;45.508;-122.806;2023-05-20T01:21:02;100703.13;;;28.99;37.71
50852;BME280;43953;45.508;-122.806;2023-05-20T01:21:35;100687.97;;;28.97;37.49
50852;BME280;43953;45.508;-122.806;2023-05-20T01:22:08;100703.94;;;29.00;37.68
50852;BME280;43953;45.508;-122.806;2023-05-20T01:22:53;100698.69;;;28.98;37.78
50852;BME280;43953;45.508;-122.806;2023-05-20T01:23:33;100692.69;;;28.96;37.87
50852;BME280;43953;45.508;-122.806;2023-05-20T01:24:09;100692.53;;;28.93;37.48
50852;BME280;43953;45.508;-122.806;2023-05-20T01:24:45;100699.84;;;28.97;37.80
50852;BME280;43953;45.508;-122.806;2023-05-20T01:25:23;100695.94;;;28.98;37.80
50852;BME280;43953;45.508;-122.806;2023-05-20T01:25:56;100695.13;;;28.98;37.78
50852;BME280;43953;45.508;-122.806;2023-05-20T01:26:28;100691.91;;;28.96;37.72
50852;BME280;43953;45.508;-122.806;2023-05-20T01:26:59;100700.81;;;29.01;37.98
50852;BME280;43953;45.508;-122.806;2023-05-20T01:27:31;100700.00;;;29.01;38.04
50852;BME280;43953;45.508;-122.806;2023-05-20T01:28:03;100700.00;;;29.01;37.90
50852;BME280;43953;45.508;-122.806;2023-05-20T01:28:36;100700.00;;;29.01;37.84
50852;BME280;43953;45.508;-122.806;2023-05-20T01:29:09;100703.56;;;29.01;37.88
50852;BME280;43953;45.508;-122.806;2023-05-20T01:29:44;100702.78;;;29.01;37.57
50852;BME280;43953;45.508;-122.806;2023-05-20T01:30:16;100702.47;;;29.02;37.92
50852;BME280;43953;45.508;-122.806;2023-05-20T01:30:51;100705.25;;;29.02;37.91
50852;BME280;43953;45.508;-122.806;2023-05-20T01:31:27;100700.34;;;28.99;37.79
50852;BME280;43953;45.508;-122.806;2023-05-20T01:32:58;100707.69;;;29.04;37.88
50852;BME280;43953;45.508;-122.806;2023-05-20T01:33:35;100714.03;;;29.05;37.96
50852;BME280;43953;45.508;-122.806;2023-05-20T01:34:07;100705.72;;;29.05;37.85
50852;BME280;43953;45.508;-122.806;2023-05-20T01:34:40;100710.78;;;29.02;38.01
50852;BME280;43953;45.508;-122.806;2023-05-20T01:35:15;100710.13;;;29.06;38.09
50852;BME280;43953;45.508;-122.806;2023-05-20T01:35:47;100718.09;;;29.07;38.02
50852;BME280;43953;45.508;-122.806;2023-05-20T01:36:20;100714.50;;;29.07;38.06
50852;BME280;43953;45.508;-122.806;2023-05-20T01:36:53;100718.09;;;29.07;37.94
50852;BME280;43953;45.508;-122.806;2023-05-20T01:37:26;100714.88;;;29.05;38.08
50852;BME280;43953;45.508;-122.806;2023-05-20T01:37:59;100718.59;;;29.09;37.99
50852;BME280;43953;45.508;-122.806;2023-05-20T01:38:32;100724.94;;;29.10;38.02
50852;BME280;43953;45.508;-122.806;2023-05-20T01:39:04;100711.06;;;29.10;38.09
50852;BME280;43953;45.508;-122.806;2023-05-20T01:39:38;100725.75;;;29.10;37.92
50852;BME280;43953;45.508;-122.806;2023-05-20T01:40:15;100732.13;;;29.11;37.94
50852;BME280;43953;45.508;-122.806;2023-05-20T01:40:47;100735.72;;;29.11;37.82
50852;BME280;43953;45.508;-122.806;2023-05-20T01:41:20;100732.13;;;29.11;37.91
50852;BME280;43953;45.508;-122.806;2023-05-20T01:41:54;100734.53;;;29.12;37.96
50852;BME280;43953;45.508;-122.806;2023-05-20T01:42:27;100734.91;;;29.11;37.81
50852;BME280;43953;45.508;-122.806;2023-05-20T01:43:00;100739.78;;;29.14;37.76
50852;BME280;43953;45.508;-122.806;2023-05-20T01:43:33;100742.53;;;29.14;37.99
50852;BME280;43953;45.508;-122.806;2023-05-20T01:44:05;100744.16;;;29.15;37.76
50852;BME280;43953;45.508;-122.806;2023-05-20T01:44:37;100744.16;;;29.15;37.79
50852;BME280;43953;45.508;-122.806;2023-05-20T01:45:10;100749.69;;;29.15;37.75
50852;BME280;43953;45.508;-122.806;2023-05-20T01:45:42;100743.00;;;29.16;37.81
50852;BME280;43953;45.508;-122.806;2023-05-20T01:46:14;100743.00;;;29.16;37.84
50852;BME280;43953;45.508;-122.806;2023-05-20T01:46:49;100743.34;;;29.14;37.75
50852;BME280;43953;45.508;-122.806;2023-05-20T01:47:21;100750.19;;;29.17;37.75
50852;BME280;43953;45.508;-122.806;2023-05-20T01:47:53;100748.22;;;29.17;37.73
50852;BME280;43953;45.508;-122.806;2023-05-20T01:48:24;100743.00;;;29.16;37.71
50852;BME280;43953;45.508;-122.806;2023-05-20T01:48:56;100745.09;;;29.19;37.85
50852;BME280;43953;45.508;-122.806;2023-05-20T01:49:28;100746.25;;;29.18;37.67
50852;BME280;43953;45.508;-122.806;2023-05-20T01:50:00;100746.75;;;29.20;37.44
50852;BME280;43953;45.508;-122.806;2023-05-20T01:50:31;100749.53;;;29.20;37.62
50852;BME280;43953;45.508;-122.806;2023-05-20T01:51:03;100744.31;;;29.18;37.62
50852;BME280;43953;45.508;-122.806;2023-05-20T01:51:35;100749.97;;;29.22;37.68
50852;BME280;43953;45.508;-122.806;2023-05-20T01:52:07;100742.00;;;29.20;37.74
50852;BME280;43953;45.508;-122.806;2023-05-20T01:52:38;100745.09;;;29.19;37.67
50852;BME280;43953;45.508;-122.806;2023-05-20T01:53:10;100749.19;;;29.21;37.72
50852;BME280;43953;45.508;-122.806;2023-05-20T01:53:43;100744.44;;;29.22;37.70
50852;BME280;43953;45.508;-122.806;2023-05-20T01:54:15;100747.22;;;29.22;37.66
50852;BME280;43953;45.508;-122.806;2023-05-20T01:54:46;100738.44;;;29.20;37.76
50852;BME280;43953;45.508;-122.806;2023-05-20T01:55:21;100742.81;;;29.21;37.74
50852;BME280;43953;45.508;-122.806;2023-05-20T01:55:53;100739.72;;;29.22;37.84
50852;BME280;43953;45.508;-122.806;2023-05-20T01:56:24;100743.31;;;29.23;37.80
50852;BME280;43953;45.508;-122.806;2023-05-20T01:56:56;100735.00;;;29.23;37.81
50852;BME280;43953;45.508;-122.806;2023-05-20T01:57:28;100735.81;;;29.23;37.80
50852;BME280;43953;45.508;-122.806;2023-05-20T01:58:00;100736.59;;;29.24;37.83
50852;BME280;43953;45.508;-122.806;2023-05-20T01:58:32;100739.88;;;29.26;37.75
50852;BME280;43953;45.508;-122.806;2023-05-20T01:59:03;100736.28;;;29.25;37.95
50852;BME280;43953;45.508;-122.806;2023-05-20T01:59:35;100734.31;;;29.26;37.88
50852;BME280;43953;45.508;-122.806;2023-05-20T02:00:07;100727.13;;;29.25;38.01
50852;BME280;43953;45.508;-122.806;2023-05-20T02:00:39;100733.50;;;29.25;37.92
50852;BME280;43953;45.508;-122.806;2023-05-20T02:01:11;100735.13;;;29.27;37.83
50852;BME280;43953;45.508;-122.806;2023-05-20T02:01:43;100733.16;;;29.27;37.77
50852;BME280;43953;45.508;-122.806;2023-05-20T02:02:16;100735.94;;;29.27;37.90
50852;BME280;43953;45.508;-122.806;2023-05-20T02:02:48;100727.28;;;29.29;37.70
50852;BME280;43953;45.508;-122.806;2023-05-20T02:03:19;100733.66;;;29.29;37.95
50852;BME280;43953;45.508;-122.806;2023-05-20T02:03:51;100728.91;;;29.30;37.88
50852;BME280;43953;45.508;-122.806;2023-05-20T02:04:23;100730.88;;;29.29;37.90
50852;BME280;43953;45.508;-122.806;2023-05-20T02:04:54;100728.91;;;29.30;38.03
50852;BME280;43953;45.508;-122.806;2023-05-20T02:05:26;100735.28;;;29.30;38.00
50852;BME280;43953;45.508;-122.806;2023-05-20T02:05:58;100733.66;;;29.29;37.88
50852;BME280;43953;45.508;-122.806;2023-05-20T02:06:29;100727.75;;;29.31;37.92
50852;BME280;43953;45.508;-122.806;2023-05-20T02:07:01;100723.69;;;29.28;37.94
50852;BME280;43953;45.508;-122.806;2023-05-20T02:07:33;100729.41;;;29.32;37.99
50852;BME280;43953;45.508;-122.806;2023-05-20T02:08:05;100727.63;;;29.27;37.89
50852;BME280;43953;45.508;-122.806;2023-05-20T02:08:36;100732.97;;;29.32;37.94
50852;BME280;43953;45.508;-122.806;2023-05-20T02:09:08;100731.69;;;29.30;37.89
50852;BME280;43953;45.508;-122.806;2023-05-20T02:09:40;100732.97;;;29.32;37.80
50852;BME280;43953;45.508;-122.806;2023-05-20T02:10:12;100732.97;;;29.32;37.80
50852;BME280;43953;45.508;-122.806;2023-05-20T02:10:46;100739.34;;;29.33;37.96
50852;BME280;43953;45.508;-122.806;2023-05-20T02:11:18;100731.00;;;29.33;37.93
50852;BME280;43953;45.508;-122.806;2023-05-20T02:11:49;100731.69;;;29.30;37.73
50852;BME280;43953;45.508;-122.806;2023-05-20T02:12:21;100745.00;;;29.36;37.94
50852;BME280;43953;45.508;-122.806;2023-05-20T02:12:53;100744.22;;;29.36;37.81
50852;BME280;43953;45.508;-122.806;2023-05-20T02:13:24;100747.78;;;29.36;37.85
50852;BME280;43953;45.508;-122.806;2023-05-20T02:13:56;100745.81;;;29.37;37.90
50852;BME280;43953;45.508;-122.806;2023-05-20T02:14:28;100747.47;;;29.38;37.81
50852;BME280;43953;45.508;-122.806;2023-05-20T02:15:00;100748.28;;;29.38;37.64
50852;BME280;43953;45.508;-122.806;2023-05-20T02:15:31;100755.44;;;29.39;37.75
50852;BME280;43953;45.508;-122.806;2023-05-20T02:16:03;100752.22;;;29.37;37.66
50852;BME280;43953;45.508;-122.806;2023-05-20T02:16:35;100749.44;;;29.37;37.76
50852;BME280;43953;45.508;-122.806;2023-05-20T02:17:07;100749.09;;;29.39;37.72
50852;BME280;43953;45.508;-122.806;2023-05-20T02:17:38;100758.69;;;29.41;37.79
50852;BME280;43953;45.508;-122.806;2023-05-20T02:18:10;100749.09;;;29.39;37.57
50852;BME280;43953;45.508;-122.806;2023-05-20T02:18:48;100751.53;;;29.40;37.77
50852;BME280;43953;45.508;-122.806;2023-05-20T02:19:23;100744.22;;;29.36;37.65
50852;BME280;43953;45.508;-122.806;2023-05-20T02:19:54;100750.88;;;29.43;37.64
50852;BME280;43953;45.508;-122.806;2023-05-20T02:20:26;100754.78;;;29.42;37.68
50852;BME280;43953;45.508;-122.806;2023-05-20T02:21:02;100748.91;;;29.44;37.78
50852;BME280;43953;45.508;-122.806;2023-05-20T02:21:34;100755.25;;;29.44;37.56
50852;BME280;43953;45.508;-122.806;2023-05-20T02:22:06;100751.31;;;29.45;37.43
50852;BME280;43953;45.508;-122.806;2023-05-20T02:22:37;100754.09;;;29.45;37.63
50852;BME280;43953;45.508;-122.806;2023-05-20T02:23:09;100743.00;;;29.45;37.53
50852;BME280;43953;45.508;-122.806;2023-05-20T02:23:41;100744.16;;;29.44;37.49
50852;BME280;43953;45.508;-122.806;2023-05-20T02:24:13;100740.22;;;29.45;37.54
50852;BME280;43953;45.508;-122.806;2023-05-20T02:24:45;100747.41;;;29.46;37.79
50852;BME280;43953;45.508;-122.806;2023-05-20T02:25:16;100743.81;;;29.46;37.64
50852;BME280;43953;45.508;-122.806;2023-05-20T02:25:48;100744.97;;;29.45;37.75
50852;BME280;43953;45.508;-122.806;2023-05-20T02:26:20;100739.91;;;29.47;37.59
50852;BME280;43953;45.508;-122.806;2023-05-20T02:26:52;100743.81;;;29.46;37.50
50852;BME280;43953;45.508;-122.806;2023-05-20T02:27:25;100734.91;;;29.40;37.99
50852;BME280;43953;45.508;-122.806;2023-05-20T02:27:57;100738.59;;;29.44;37.45
50852;BME280;43953;45.508;-122.806;2023-05-20T02:28:29;100740.22;;;29.45;38.04
50852;BME280;43953;45.508;-122.806;2023-05-20T02:29:01;100741.53;;;29.48;37.65
50852;BME280;43953;45.508;-122.806;2023-05-20T02:29:32;100742.69;;;29.47;37.78
50852;BME280;43953;45.508;-122.806;2023-05-20T02:30:05;100748.72;;;29.49;37.66
50852;BME280;43953;45.508;-122.806;2023-05-20T02:30:37;100743.97;;;29.50;37.80
50852;BME280;43953;45.508;-122.806;2023-05-20T02:31:09;100746.25;;;29.47;37.79
50852;BME280;43953;45.508;-122.806;2023-05-20T02:31:41;100752.28;;;29.50;37.85
50852;BME280;43953;45.508;-122.806;2023-05-20T02:32:12;100749.53;;;29.50;37.71
50852;BME280;43953;45.508;-122.806;2023-05-20T02:32:44;100747.88;;;29.48;37.72
50852;BME280;43953;45.508;-122.806;2023-05-20T02:33:18;100747.06;;;29.48;37.83
50852;BME280;43953;45.508;-122.806;2023-05-20T02:33:50;100747.41;;;29.46;37.54
50852;BME280;43953;45.508;-122.806;2023-05-20T02:34:21;100755.06;;;29.50;37.60
50852;BME280;43953;45.508;-122.806;2023-05-20T02:34:56;100747.88;;;29.48;37.80
50852;BME280;43953;45.508;-122.806;2023-05-20T02:35:27;100754.72;;;29.51;37.95
50852;BME280;43953;45.508;-122.806;2023-05-20T02:35:59;100750.66;;;29.48;37.69
50852;BME280;43953;45.508;-122.806;2023-05-20T02:36:31;100753.59;;;29.52;37.65
50852;BME280;43953;45.508;-122.806;2023-05-20T02:37:02;100753.59;;;29.52;37.72
50852;BME280;43953;45.508;-122.806;2023-05-20T02:37:34;100754.41;;;29.53;37.87
50852;BME280;43953;45.508;-122.806;2023-05-20T02:38:06;100756.69;;;29.51;37.85
50852;BME280;43953;45.508;-122.806;2023-05-20T02:38:38;100760.75;;;29.53;37.66
50852;BME280;43953;45.508;-122.806;2023-05-20T02:39:10;100763.53;;;29.53;37.80
50852;BME280;43953;45.508;-122.806;2023-05-20T02:39:42;100759.94;;;29.53;37.76
50852;BME280;43953;45.508;-122.806;2023-05-20T02:40:14;100761.56;;;29.54;37.79
50852;BME280;43953;45.508;-122.806;2023-05-20T02:40:46;100759.94;;;29.53;37.64
50852;BME280;43953;45.508;-122.806;2023-05-20T02:41:17;100752.75;;;29.52;37.66
50852;BME280;43953;45.508;-122.806;2023-05-20T02:41:49;100766.28;;;29.53;37.62
50852;BME280;43953;45.508;-122.806;2023-05-20T02:42:21;100764.81;;;29.56;37.58
50852;BME280;43953;45.508;-122.806;2023-05-20T02:42:53;100762.03;;;29.56;37.72
50852;BME280;43953;45.508;-122.806;2023-05-20T02:43:25;100764.81;;;29.56;37.54
50852;BME280;43953;45.508;-122.806;2023-05-20T02:43:56;100763.66;;;29.57;37.41
50852;BME280;43953;45.508;-122.806;2023-05-20T02:44:28;100762.84;;;29.56;37.78
50852;BME280;43953;45.508;-122.806;2023-05-20T02:45:00;100768.03;;;29.58;37.51